Time;durP1;ratioP1;P1;durP2;ratioP2;P2;SDS_P1;SDS_P2;PMS_P1;PMS_P2;Temp;Humidity;BMP_temperature;BMP_pressure;BME280_temperature;BME280_humidity;BME280_pressure;Samples;Min_cycle;Max_cycle;Signal;HPM_P1;HPM_P2
2023/08/09 00:01:10;;;;;;;8.02;3.92;;;16.20;77.90;;;;;;9179454;19;20014;-72
2023/08/09 00:04:17;;;;;;;7.68;4.30;;;16.10;78.00;;;;;;9177928;19;20015;-72
2023/08/09 00:07:23;;;;;;;7.75;4.30;;;16.10;78.00;;;;;;9179073;19;20368;-72
2023/08/09 00:10:31;;;;;;;7.53;4.82;;;16.10;78.10;;;;;;9180124;19;20025;-71
2023/08/09 00:13:36;;;;;;;6.70;4.57;;;16.10;78.10;;;;;;9178705;19;20025;-72
2023/08/09 00:16:46;;;;;;;10.60;5.55;;;16.10;78.20;;;;;;9178931;19;20014;-71
2023/08/09 00:19:51;;;;;;;9.00;5.10;;;16.10;78.30;;;;;;9177635;19;20131;-72
2023/08/09 00:22:58;;;;;;;8.48;5.18;;;16.10;78.30;;;;;;9177507;19;20654;-71
2023/08/09 00:26:04;;;;;;;6.57;5.32;;;16.10;78.30;;;;;;9179036;19;20025;-71
2023/08/09 00:29:12;;;;;;;13.68;5.32;;;16.00;78.30;;;;;;9178657;19;20082;-71
2023/08/09 00:32:20;;;;;;;7.50;5.55;;;16.00;78.40;;;;;;9177538;19;20014;-72
2023/08/09 00:35:27;;;;;;;11.05;5.72;;;16.00;78.50;;;;;;9178943;19;20025;-72
2023/08/09 00:38:33;;;;;;;9.65;5.78;;;16.00;78.50;;;;;;9179372;19;20099;-72
2023/08/09 00:41:41;;;;;;;7.30;5.57;;;16.00;78.50;;;;;;9177619;19;20020;-71
2023/08/09 00:44:46;;;;;;;9.70;6.03;;;16.00;78.60;;;;;;9177977;19;20052;-71
2023/08/09 00:48:16;;;;;;;10.30;6.63;;;16.00;78.60;;;;;;9176430;19;20082;-71
2023/08/09 00:51:23;;;;;;;7.35;5.97;;;16.00;78.60;;;;;;9174492;19;20085;-71
2023/08/09 00:54:30;;;;;;;9.48;6.47;;;16.00;78.60;;;;;;9176570;19;20479;-72
2023/08/09 00:57:36;;;;;;;10.10;6.88;;;16.00;78.70;;;;;;9169697;19;20082;-72
2023/08/09 01:00:43;;;;;;;9.27;6.88;;;15.90;78.70;;;;;;9175205;19;20019;-72
2023/08/09 01:03:51;;;;;;;10.90;6.60;;;15.90;78.70;;;;;;9178495;19;20018;-72
2023/08/09 01:07:07;;;;;;;9.90;7.00;;;15.90;78.80;;;;;;9184344;19;20698;-72
2023/08/09 01:10:17;;;;;;;10.73;7.00;;;15.90;78.80;;;;;;9185387;19;20563;-72
2023/08/09 01:13:25;;;;;;;12.07;6.60;;;15.90;78.80;;;;;;9185923;19;20026;-72
2023/08/09 01:16:31;;;;;;;9.85;6.53;;;15.80;78.80;;;;;;9185091;19;20044;-72
2023/08/09 01:19:47;;;;;;;16.33;6.95;;;15.80;78.90;;;;;;9184998;19;20019;-72
2023/08/09 01:22:59;;;;;;;11.73;6.57;;;15.80;79.10;;;;;;9181957;19;20018;-72
2023/08/09 01:26:24;;;;;;;8.65;6.78;;;15.80;79.40;;;;;;9185122;19;20471;-72
2023/08/09 01:29:29;;;;;;;10.57;7.28;;;15.80;79.50;;;;;;9184854;19;20349;-72
2023/08/09 01:32:41;;;;;;;8.50;6.97;;;16.10;80.10;;;;;;9184608;19;20029;-73
2023/08/09 01:35:57;;;;;;;11.02;7.30;;;15.80;80.40;;;;;;9185929;19;20018;-72
2023/08/09 01:39:11;;;;;;;15.85;8.60;;;15.80;81.20;;;;;;9182811;19;20021;-72
2023/08/09 01:42:19;;;;;;;10.98;7.65;;;15.80;81.80;;;;;;9183912;19;20014;-72
2023/08/09 01:45:28;;;;;;;10.50;8.02;;;15.80;79.60;;;;;;9184513;19;20030;-73
2023/08/09 01:48:35;;;;;;;12.85;8.40;;;15.70;79.70;;;;;;9182083;19;20022;-72
2023/08/09 01:51:42;;;;;;;12.65;7.65;;;15.70;79.70;;;;;;9183910;19;20007;-72
2023/08/09 01:54:48;;;;;;;11.57;8.18;;;15.60;79.70;;;;;;9181911;19;20015;-72
2023/08/09 01:57:58;;;;;;;12.25;8.10;;;15.60;79.60;;;;;;9177218;19;20026;-72
2023/08/09 02:01:03;;;;;;;12.55;8.45;;;15.70;79.90;;;;;;9183893;19;20035;-72
2023/08/09 02:04:12;;;;;;;15.85;8.45;;;15.70;80.00;;;;;;9180914;19;20017;-72
2023/08/09 02:07:18;;;;;;;14.32;7.78;;;15.70;80.10;;;;;;9182568;19;20035;-71
2023/08/09 02:10:25;;;;;;;12.63;8.30;;;15.70;80.50;;;;;;9183064;19;20380;-71
2023/08/09 02:13:34;;;;;;;17.83;8.13;;;15.70;80.10;;;;;;9182952;19;20014;-72
2023/08/09 02:16:41;;;;;;;11.93;7.88;;;15.80;80.40;;;;;;9179290;19;20026;-72
2023/08/09 02:19:47;;;;;;;11.30;7.63;;;15.70;81.40;;;;;;9182889;19;20025;-72
2023/08/09 02:22:55;;;;;;;12.57;8.82;;;15.70;81.70;;;;;;9180258;19;20013;-72
2023/08/09 02:26:01;;;;;;;15.10;8.77;;;15.60;80.80;;;;;;9182227;19;20782;-71
2023/08/09 02:29:11;;;;;;;15.50;9.35;;;15.60;81.30;;;;;;9180735;19;20022;-71
2023/08/09 02:32:17;;;;;;;17.45;9.00;;;15.70;81.60;;;;;;9182273;19;20097;-72
2023/08/09 02:35:24;;;;;;;17.70;9.65;;;15.40;81.00;;;;;;9182416;19;20034;-71
2023/08/09 02:38:31;;;;;;;13.82;8.57;;;15.70;81.70;;;;;;9181180;19;20014;-71
2023/08/09 02:41:42;;;;;;;12.98;8.85;;;15.60;81.60;;;;;;9182411;19;20026;-71
2023/08/09 02:44:50;;;;;;;21.08;9.00;;;15.40;81.70;;;;;;9178847;19;20078;-72
2023/08/09 02:48:00;;;;;;;17.27;9.35;;;15.70;82.10;;;;;;9178693;19;20377;-72
2023/08/09 02:51:06;;;;;;;15.60;9.93;;;15.80;81.20;;;;;;9179747;19;20011;-72
2023/08/09 02:54:13;;;;;;;13.77;9.32;;;15.70;81.90;;;;;;9178312;19;20368;-72
2023/08/09 02:57:19;;;;;;;15.70;10.07;;;15.80;81.10;;;;;;9175567;19;20011;-72
2023/08/09 03:00:29;;;;;;;16.45;9.73;;;15.70;80.80;;;;;;9181058;19;20021;-71
2023/08/09 03:03:35;;;;;;;14.18;9.60;;;15.70;81.20;;;;;;9178830;19;20111;-71
2023/08/09 03:06:44;;;;;;;12.70;9.15;;;15.70;80.80;;;;;;9180639;19;20018;-71
2023/08/09 03:09:49;;;;;;;14.07;9.13;;;15.70;81.50;;;;;;9178869;19;20078;-72
2023/08/09 03:12:57;;;;;;;14.05;9.40;;;15.70;81.50;;;;;;9179738;19;20449;-72
2023/08/09 03:16:06;;;;;;;14.50;10.15;;;15.70;80.60;;;;;;9178508;19;20403;-71
2023/08/09 03:19:15;;;;;;;14.02;9.38;;;15.80;80.60;;;;;;9179304;19;20015;-72
2023/08/09 03:22:24;;;;;;;15.32;10.02;;;15.60;80.40;;;;;;9178516;19;20011;-72
2023/08/09 03:25:31;;;;;;;16.15;10.77;;;15.70;80.60;;;;;;9178191;19;20018;-72
2023/08/09 03:28:42;;;;;;;16.55;10.30;;;15.70;80.50;;;;;;9178196;19;20025;-71
2023/08/09 03:31:54;;;;;;;16.85;10.52;;;15.60;80.50;;;;;;9178371;19;20082;-71
2023/08/09 03:35:00;;;;;;;14.48;9.55;;;15.70;80.60;;;;;;9178329;19;20031;-72
2023/08/09 03:38:08;;;;;;;14.82;10.45;;;15.70;80.60;;;;;;9177795;19;20019;-72
2023/08/09 03:41:13;;;;;;;17.30;10.23;;;15.70;80.60;;;;;;9177777;19;20018;-72
2023/08/09 03:44:21;;;;;;;16.55;10.52;;;15.70;80.60;;;;;;9176270;19;20018;-72
2023/08/09 03:47:29;;;;;;;15.65;9.25;;;15.70;81.00;;;;;;9178404;19;20029;-72
2023/08/09 03:50:37;;;;;;;17.98;10.30;;;15.70;85.00;;;;;;9177306;19;20356;-72
2023/08/09 03:53:42;;;;;;;13.93;9.63;;;15.70;81.30;;;;;;9177340;19;20014;-71
2023/08/09 03:56:51;;;;;;;14.68;9.30;;;15.70;80.80;;;;;;9173253;19;20064;-71
2023/08/09 03:59:57;;;;;;;13.80;9.05;;;15.60;80.70;;;;;;9178930;19;20074;-71
2023/08/09 04:03:07;;;;;;;16.27;9.18;;;15.60;80.70;;;;;;9176817;19;20017;-71
2023/08/09 04:06:13;;;;;;;16.20;9.52;;;15.60;80.80;;;;;;9176821;19;20509;-72
2023/08/09 04:09:21;;;;;;;14.35;8.73;;;15.60;80.80;;;;;;9178989;19;20022;-72
2023/08/09 04:12:26;;;;;;;15.77;9.43;;;15.60;80.80;;;;;;9178421;19;20010;-72
2023/08/09 04:15:34;;;;;;;18.60;9.93;;;15.60;80.80;;;;;;9176513;19;20487;-71
2023/08/09 04:18:42;;;;;;;13.27;9.13;;;15.60;80.90;;;;;;9177861;19;20590;-72
2023/08/09 04:21:50;;;;;;;13.93;9.05;;;15.60;81.00;;;;;;9176327;19;20026;-72
2023/08/09 04:24:56;;;;;;;15.15;9.57;;;15.60;81.00;;;;;;9175562;19;20010;-71
2023/08/09 04:28:04;;;;;;;13.55;9.05;;;15.60;80.90;;;;;;9176394;19;20026;-72
2023/08/09 04:31:10;;;;;;;15.18;9.52;;;15.50;81.00;;;;;;9178668;19;20062;-71
2023/08/09 04:34:20;;;;;;;15.40;9.18;;;15.60;81.30;;;;;;9175303;19;20025;-74
2023/08/09 04:37:27;;;;;;;14.80;9.35;;;15.50;81.00;;;;;;9175867;19;20019;-73
2023/08/09 04:40:36;;;;;;;13.27;9.63;;;15.60;81.00;;;;;;9174653;19;20014;-73
2023/08/09 04:43:46;;;;;;;19.08;10.55;;;15.60;81.10;;;;;;9175543;19;20022;-73
2023/08/09 04:46:55;;;;;;;;;;;15.60;81.10;;;;;;9176424;19;20014;-74
2023/08/09 04:50:08;;;;;;;20.02;9.80;;;15.60;80.90;;;;;;9174983;19;20320;-74
2023/08/09 04:53:15;;;;;;;15.35;10.40;;;15.60;81.00;;;;;;9176230;19;20479;-74
2023/08/09 04:56:21;;;;;;;17.30;11.70;;;15.60;81.00;;;;;;9171242;19;20105;-74
2023/08/09 04:59:28;;;;;;;14.68;9.98;;;15.60;81.10;;;;;;9176284;19;20376;-74
2023/08/09 05:02:36;;;;;;;15.95;9.75;;;15.60;81.10;;;;;;9174468;19;20020;-73
2023/08/09 05:05:47;;;;;;;15.45;9.50;;;15.60;81.20;;;;;;9174621;19;20015;-73
2023/08/09 05:08:52;;;;;;;15.98;9.25;;;15.60;81.30;;;;;;9177520;19;20368;-74
2023/08/09 05:11:59;;;;;;;15.15;9.60;;;15.60;81.20;;;;;;9176564;19;20019;-73
2023/08/09 05:15:05;;;;;;;16.38;10.00;;;15.60;81.30;;;;;;9175943;19;20528;-74
2023/08/09 05:18:12;;;;;;;18.40;9.32;;;15.60;81.30;;;;;;9176628;19;20778;-73
2023/08/09 05:21:21;;;;;;;13.48;9.27;;;15.60;81.40;;;;;;9174881;19;20014;-73
2023/08/09 05:24:28;;;;;;;13.50;8.90;;;15.60;81.40;;;;;;9173467;19;20042;-74
2023/08/09 05:27:34;;;;;;;16.42;9.80;;;15.60;81.50;;;;;;9174192;19;20022;-73
2023/08/09 05:30:41;;;;;;;15.13;9.63;;;15.60;81.50;;;;;;9176058;19;20022;-75
2023/08/09 05:33:46;;;;;;;17.65;10.07;;;15.70;82.20;;;;;;9174650;19;20021;-74
2023/08/09 05:36:57;;;;;;;15.40;10.18;;;15.70;81.80;;;;;;9175827;19;20110;-73
2023/08/09 05:40:05;;;;;;;21.20;9.93;;;15.60;81.70;;;;;;9176218;19;20010;-76
2023/08/09 05:43:14;;;;;;;17.08;10.45;;;15.70;82.90;;;;;;9173824;19;20006;-75
2023/08/09 05:46:19;;;;;;;17.98;10.98;;;15.70;83.60;;;;;;9173078;19;20014;-75
2023/08/09 05:49:29;;;;;;;16.30;9.85;;;15.80;83.30;;;;;;9172431;19;20018;-74
2023/08/09 05:52:37;;;;;;;16.73;9.65;;;15.70;88.70;;;;;;9182494;19;20082;-74
2023/08/09 05:55:45;;;;;;;17.75;10.80;;;15.80;87.90;;;;;;9184108;19;20022;-74
2023/08/09 05:58:50;;;;;;;16.85;10.50;;;15.80;86.20;;;;;;9178119;19;20025;-75
2023/08/09 06:01:58;;;;;;;20.17;11.57;;;15.70;86.10;;;;;;9183296;19;20371;-74
2023/08/09 06:05:04;;;;;;;17.13;10.93;;;15.80;87.00;;;;;;9182030;19;20665;-75
2023/08/09 06:08:15;;;;;;;15.15;9.82;;;15.80;86.50;;;;;;9183327;19;20026;-75
2023/08/09 06:11:21;;;;;;;17.83;10.60;;;15.80;86.50;;;;;;9181872;19;20014;-74
2023/08/09 06:14:42;;;;;;;18.38;10.48;;;15.80;87.10;;;;;;9183427;19;20014;-75
2023/08/09 06:17:47;;;;;;;17.08;11.65;;;15.80;85.90;;;;;;9183148;19;20011;-73
2023/08/09 06:20:56;;;;;;;20.05;11.00;;;15.90;86.50;;;;;;9181695;19;20021;-74
2023/08/09 06:24:05;;;;;;;17.55;10.95;;;15.80;82.10;;;;;;9180759;19;20010;-76
2023/08/09 06:27:12;;;;;;;19.35;11.15;;;16.00;84.60;;;;;;9179658;19;20018;-75
2023/08/09 06:30:18;;;;;;;17.17;10.50;;;15.90;85.10;;;;;;9182917;19;20010;-74
2023/08/09 06:33:25;;;;;;;17.83;10.43;;;16.00;84.00;;;;;;9181220;19;20030;-75
2023/08/09 06:36:30;;;;;;;18.73;10.95;;;16.00;85.60;;;;;;9182130;19;20040;-74
2023/08/09 06:39:40;;;;;;;22.95;11.40;;;16.10;87.20;;;;;;9180024;19;20017;-74
2023/08/09 06:42:46;;;;;;;15.65;10.55;;;16.10;84.20;;;;;;9182011;19;20026;-73
2023/08/09 06:46:00;;;;;;;21.25;11.38;;;16.10;82.30;;;;;;9179100;19;20021;-75
2023/08/09 06:49:06;;;;;;;24.77;11.95;;;16.30;84.80;;;;;;9177389;19;20013;-75
2023/08/09 06:52:14;;;;;;;17.33;11.23;;;16.40;84.00;;;;;;9181722;19;20018;-76
2023/08/09 06:55:22;;;;;;;21.98;10.35;;;16.40;87.30;;;;;;9181789;19;20014;-75
2023/08/09 06:58:29;;;;;;;14.68;9.50;;;16.50;90.00;;;;;;9176542;19;20018;-76
2023/08/09 07:01:35;;;;;;;16.58;10.20;;;16.50;88.30;;;;;;9180540;19;20432;-75
2023/08/09 07:04:42;;;;;;;17.30;9.15;;;16.70;90.10;;;;;;9181442;19;20011;-75
2023/08/09 07:07:51;;;;;;;12.77;8.25;;;16.70;91.50;;;;;;9178347;19;20019;-75
2023/08/09 07:11:01;;;;;;;19.67;8.77;;;16.90;91.70;;;;;;9181041;19;20014;-75
2023/08/09 07:14:07;;;;;;;12.25;8.10;;;16.90;84.00;;;;;;9180499;19;20082;-75
2023/08/09 07:17:14;;;;;;;17.55;9.27;;;17.00;91.80;;;;;;9180576;19;20014;-75
2023/08/09 07:20:19;;;;;;;16.20;8.88;;;17.00;92.70;;;;;;9179828;19;20039;-75
2023/08/09 07:23:27;;;;;;;19.42;8.32;;;17.10;92.40;;;;;;9180756;19;20487;-75
2023/08/09 07:26:55;;;;;;;13.70;8.40;;;17.20;91.60;;;;;;9177257;19;20118;-75
2023/08/09 07:30:02;;;;;;;17.95;8.60;;;17.20;91.20;;;;;;9180198;19;20006;-75
2023/08/09 07:33:08;;;;;;;13.80;8.30;;;17.20;92.70;;;;;;9178859;19;20014;-76
2023/08/09 07:36:15;;;;;;;16.25;8.50;;;17.30;93.10;;;;;;9178073;19;20055;-76
2023/08/09 07:39:22;;;;;;;16.45;8.65;;;17.30;93.30;;;;;;9179690;19;20010;-71
2023/08/09 07:42:32;;;;;;;15.50;9.32;;;17.60;93.40;;;;;;9178368;19;20014;-71
2023/08/09 07:45:37;;;;;;;13.95;7.97;;;17.70;90.90;;;;;;9179267;19;20018;-70
2023/08/09 07:48:45;;;;;;;9.88;6.80;;;17.90;90.70;;;;;;9177381;19;20023;-71
2023/08/09 07:51:50;;;;;;;8.40;6.38;;;18.10;90.80;;;;;;9179208;19;20014;-70
2023/08/09 07:54:58;;;;;;;13.18;6.28;;;18.40;90.60;;;;;;9179430;19;20019;-70
2023/08/09 07:58:07;;;;;;;9.35;5.50;;;18.60;91.10;;;;;;9174414;19;20078;-69
2023/08/09 08:01:17;;;;;;;10.18;5.32;;;19.00;90.40;;;;;;9178914;19;20018;-70
2023/08/09 08:04:23;;;;;;;13.25;5.90;;;19.10;89.50;;;;;;9178228;19;20018;-71
2023/08/09 08:07:31;;;;;;;7.53;4.95;;;19.40;89.90;;;;;;9177096;19;20018;-69
2023/08/09 08:10:36;;;;;;;7.45;4.65;;;19.40;82.40;;;;;;9176666;19;20018;-70
2023/08/09 08:13:46;;;;;;;8.10;4.95;;;19.80;84.40;;;;;;9168866;19;20010;-69
2023/08/09 08:16:51;;;;;;;6.68;4.60;;;19.90;88.10;;;;;;9172382;19;20016;-70
2023/08/09 08:19:59;;;;;;;7.65;4.80;;;20.10;88.00;;;;;;9172395;19;20030;-72
2023/08/09 08:23:06;;;;;;;8.32;5.00;;;20.20;87.70;;;;;;9172124;19;20577;-69
2023/08/09 08:26:15;;;;;;;6.22;4.80;;;20.40;87.50;;;;;;9171524;19;20021;-71
2023/08/09 08:29:23;;;;;;;8.18;4.63;;;20.40;86.50;;;;;;9171653;19;20082;-72
2023/08/09 08:32:33;;;;;;;8.30;5.25;;;20.50;86.90;;;;;;9170274;19;20019;-71
2023/08/09 08:35:44;;;;;;;7.53;4.95;;;20.60;87.20;;;;;;9169079;19;20622;-69
2023/08/09 08:38:52;;;;;;;6.25;3.72;;;20.80;88.30;;;;;;9171339;19;20022;-70
2023/08/09 08:41:58;;;;;;;8.82;4.13;;;20.90;87.90;;;;;;9172461;19;20015;-70
2023/08/09 08:45:12;;;;;;;10.60;4.32;;;21.00;87.90;;;;;;9171505;19;20021;-69
2023/08/09 08:48:18;;;;;;;7.13;3.28;;;21.10;91.20;;;;;;9169157;19;20019;-69
2023/08/09 08:51:27;;;;;;;6.90;3.83;;;21.30;83.00;;;;;;9169501;19;20480;-68
2023/08/09 08:54:33;;;;;;;5.30;3.20;;;21.40;84.80;;;;;;9169953;19;20025;-69
2023/08/09 08:57:41;;;;;;;5.15;3.22;;;21.50;85.10;;;;;;9166299;19;20041;-69
2023/08/09 09:00:49;;;;;;;3.75;2.75;;;21.60;77.50;;;;;;9174017;19;20018;-69
2023/08/09 09:03:57;;;;;;;4.90;2.88;;;21.70;77.00;;;;;;9174447;19;20007;-69
2023/08/09 09:07:02;;;;;;;4.28;2.97;;;21.90;76.80;;;;;;9174744;19;20026;-69
2023/08/09 09:10:12;;;;;;;6.53;2.97;;;22.00;76.60;;;;;;9173162;19;20011;-70
2023/08/09 09:13:27;;;;;;;4.70;2.80;;;22.20;76.30;;;;;;9174965;19;20376;-69
2023/08/09 09:16:38;;;;;;;9.48;3.22;;;22.30;75.80;;;;;;9177038;19;20026;-68
2023/08/09 09:19:46;;;;;;;3.95;2.20;;;22.50;75.80;;;;;;9174013;19;20022;-69
2023/08/09 09:22:54;;;;;;;2.92;1.60;;;22.60;75.50;;;;;;9171662;19;20015;-70
2023/08/09 09:26:09;;;;;;;2.42;1.65;;;22.80;75.40;;;;;;9181931;19;20018;-70
2023/08/09 09:29:17;;;;;;;2.13;1.60;;;23.00;75.40;;;;;;9181626;19;20021;-70
2023/08/09 09:32:25;;;;;;;5.15;1.80;;;23.00;75.90;;;;;;9184469;19;20022;-70
2023/08/09 09:35:34;;;;;;;4.05;1.90;;;23.20;76.10;;;;;;9183284;19;20025;-70
2023/08/09 09:38:40;;;;;;;3.10;1.67;;;23.40;78.00;;;;;;9183054;19;20015;-70
2023/08/09 09:41:50;;;;;;;1.90;1.58;;;23.40;82.30;;;;;;9183844;19;20589;-70
2023/08/09 09:44:55;;;;;;;2.72;1.70;;;23.50;90.40;;;;;;9184080;19;20376;-70
2023/08/09 09:48:06;;;;;;;4.97;1.42;;;23.60;80.00;;;;;;9182206;19;20018;-70
2023/08/09 09:51:12;;;;;;;2.05;1.25;;;23.70;78.90;;;;;;9183719;19;20011;-70
2023/08/09 09:54:20;;;;;;;3.65;1.10;;;23.90;75.50;;;;;;9184084;19;20011;-70
2023/08/09 09:57:26;;;;;;;1.63;0.88;;;23.90;90.20;;;;;;9179261;19;20021;-69
2023/08/09 10:00:34;;;;;;;3.05;1.13;;;24.10;90.20;;;;;;9183904;19;20357;-68
2023/08/09 10:03:44;;;;;;;6.45;0.93;;;24.10;89.70;;;;;;9183049;19;20073;-69
2023/08/09 10:06:59;;;;;;;2.03;0.85;;;24.30;87.50;;;;;;9183628;19;20111;-69
2023/08/09 10:10:05;;;;;;;2.50;1.02;;;24.40;87.40;;;;;;9183366;19;20753;-70
2023/08/09 10:13:15;;;;;;;1.67;1.13;;;24.40;81.20;;;;;;9183698;19;20014;-69
2023/08/09 10:16:24;;;;;;;2.42;1.13;;;24.50;86.00;;;;;;9183131;19;20047;-70
2023/08/09 10:19:35;;;;;;;2.33;0.90;;;24.60;86.50;;;;;;9182724;19;20018;-70
2023/08/09 10:22:40;;;;;;;3.95;0.88;;;24.60;86.10;;;;;;9183278;19;20081;-70
2023/08/09 10:25:50;;;;;;;1.00;0.90;;;24.60;86.70;;;;;;9179512;19;20010;-70
2023/08/09 10:29:04;;;;;;;2.80;1.00;;;24.60;86.70;;;;;;9180332;19;20018;-70
2023/08/09 10:32:11;;;;;;;4.35;1.38;;;24.70;86.30;;;;;;9181772;19;20006;-70
2023/08/09 10:35:47;;;;;;;2.05;1.23;;;24.70;86.40;;;;;;9180077;19;20053;-71
2023/08/09 10:38:56;;;;;;;1.13;0.73;;;24.60;84.90;;;;;;9177854;19;20014;-70
2023/08/09 10:42:03;;;;;;;2.95;1.05;;;24.70;85.90;;;;;;9176894;19;20046;-69
2023/08/09 10:45:12;;;;;;;1.05;0.77;;;24.70;85.00;;;;;;9175380;19;20023;-69
2023/08/09 10:48:25;;;;;;;2.20;1.00;;;24.70;85.20;;;;;;9180778;19;20038;-69
2023/08/09 10:51:35;;;;;;;2.33;1.05;;;24.60;85.40;;;;;;9182579;19;20582;-69
2023/08/09 10:54:40;;;;;;;3.25;1.25;;;24.80;75.80;;;;;;9182485;19;20044;-70
2023/08/09 10:57:49;;;;;;;2.30;1.15;;;24.80;82.80;;;;;;9175962;19;20021;-70
2023/08/09 11:00:55;;;;;;;4.18;1.23;;;24.80;84.70;;;;;;9182207;19;20011;-70
2023/08/09 11:04:03;;;;;;;2.42;0.93;;;24.90;84.90;;;;;;9181588;19;20010;-70
2023/08/09 11:07:21;;;;;;;1.33;0.88;;;24.90;84.40;;;;;;9181902;19;20003;-71
2023/08/09 11:10:36;;;;;;;5.50;1.13;;;25.00;83.00;;;;;;9181281;19;20014;-72
2023/08/09 11:13:42;;;;;;;1.45;0.93;;;25.00;82.70;;;;;;9181114;19;20015;-71
2023/08/09 11:16:54;;;;;;;7.07;1.08;;;25.00;84.00;;;;;;9180656;19;20014;-71
2023/08/09 11:20:14;;;;;;;2.22;1.70;;;25.00;84.10;;;;;;9180577;19;20048;-71
2023/08/09 11:23:24;;;;;;;3.15;1.30;;;25.00;84.00;;;;;;9180744;19;20015;-71
2023/08/09 11:26:29;;;;;;;3.22;0.90;;;25.10;84.10;;;;;;9181018;19;20014;-71
2023/08/09 11:29:36;;;;;;;3.72;1.10;;;25.20;83.70;;;;;;9179162;19;20014;-71
2023/08/09 11:32:42;;;;;;;3.05;1.10;;;25.20;83.90;;;;;;9179579;19;20034;-71
2023/08/09 11:35:49;;;;;;;2.33;1.30;;;25.20;83.80;;;;;;9180828;19;20030;-71
2023/08/09 11:38:57;;;;;;;3.58;1.23;;;25.30;84.00;;;;;;9180687;19;20010;-71
2023/08/09 11:42:09;;;;;;;2.13;1.42;;;25.30;83.40;;;;;;9180601;19;20014;-69
2023/08/09 11:45:14;;;;;;;5.32;1.50;;;25.30;83.20;;;;;;9179095;19;20096;-70
2023/08/09 11:48:36;;;;;;;5.85;1.60;;;25.20;83.50;;;;;;9175537;19;20019;-71
2023/08/09 11:51:42;;;;;;;4.15;1.23;;;25.20;82.80;;;;;;9180370;19;20019;-71
2023/08/09 11:54:52;;;;;;;5.35;1.50;;;25.20;82.80;;;;;;9180079;19;20471;-70
2023/08/09 11:57:57;;;;;;;3.78;1.40;;;25.30;82.70;;;;;;9175313;19;20025;-72
2023/08/09 12:01:18;;;;;;;3.15;1.63;;;25.20;82.60;;;;;;9178366;19;20021;-71
2023/08/09 12:04:25;;;;;;;4.45;1.30;;;25.20;82.10;;;;;;9179164;19;20070;-70
2023/08/09 12:07:33;;;;;;;10.10;1.40;;;25.20;83.00;;;;;;9179333;19;20023;-72
2023/08/09 12:10:45;;;;;;;2.10;1.10;;;25.30;83.40;;;;;;9177705;19;20106;-71
2023/08/09 12:13:52;;;;;;;2.38;1.10;;;25.20;82.10;;;;;;9179034;19;20014;-71
2023/08/09 12:16:57;;;;;;;3.13;1.45;;;25.20;82.90;;;;;;9178200;19;20655;-71
2023/08/09 12:20:09;;;;;;;5.78;1.40;;;25.40;82.70;;;;;;9178701;19;20021;-72
2023/08/09 12:23:15;;;;;;;5.32;1.10;;;25.30;82.10;;;;;;9170846;19;20025;-71
2023/08/09 12:26:28;;;;;;;4.28;1.42;;;25.20;82.80;;;;;;9173325;19;20010;-70
2023/08/09 12:29:33;;;;;;;4.93;1.67;;;25.30;81.70;;;;;;9163890;19;20023;-70
2023/08/09 12:32:41;;;;;;;2.28;0.98;;;25.30;82.10;;;;;;9168293;19;20007;-70
2023/08/09 12:35:46;;;;;;;2.00;0.98;;;25.30;82.40;;;;;;9168018;19;20052;-71
2023/08/09 12:38:53;;;;;;;3.08;1.23;;;25.30;82.30;;;;;;9164337;19;20376;-70
2023/08/09 12:42:01;;;;;;;4.93;1.30;;;25.20;81.90;;;;;;9170720;19;20022;-71
2023/08/09 12:45:11;;;;;;;2.80;1.15;;;25.30;82.40;;;;;;9170652;19;20014;-71
2023/08/09 12:48:16;;;;;;;6.75;0.95;;;25.20;81.30;;;;;;9166794;19;20041;-71
2023/08/09 12:51:24;;;;;;;3.83;1.40;;;25.20;80.10;;;;;;9165705;19;20029;-70
2023/08/09 12:54:30;;;;;;;22.58;5.07;;;25.20;78.70;;;;;;9164692;19;20045;-71
2023/08/09 12:57:40;;;;;;;10.02;2.05;;;25.20;74.00;;;;;;9161138;19;20349;-71
2023/08/09 13:00:50;;;;;;;2.65;1.10;;;25.20;65.80;;;;;;9176191;19;20018;-71
2023/08/09 13:03:57;;;;;;;3.58;1.35;;;25.00;64.70;;;;;;9176260;19;20480;-70
2023/08/09 13:07:03;;;;;;;5.72;1.75;;;24.90;63.20;;;;;;9175561;19;20369;-70
2023/08/09 13:10:11;;;;;;;2.38;1.55;;;24.90;63.40;;;;;;9177569;19;20014;-70
2023/08/09 13:13:19;;;;;;;11.20;3.88;;;24.70;63.00;;;;;;9177961;19;20023;-70
2023/08/09 13:16:27;;;;;;;3.67;1.60;;;24.60;63.00;;;;;;9177816;19;20018;-71
2023/08/09 13:19:36;;;;;;;5.47;1.90;;;24.50;63.30;;;;;;9177069;19;20133;-70
2023/08/09 13:22:44;;;;;;;3.58;1.80;;;24.40;63.40;;;;;;9178065;19;20010;-71
2023/08/09 13:25:49;;;;;;;6.30;1.95;;;24.30;63.80;;;;;;9175172;19;20039;-71
2023/08/09 13:29:00;;;;;;;2.85;1.55;;;24.20;63.90;;;;;;9177884;19;20021;-70
2023/08/09 13:32:05;;;;;;;3.42;1.80;;;24.10;63.80;;;;;;9179449;19;20077;-69
2023/08/09 13:35:14;;;;;;;4.15;1.80;;;24.10;63.90;;;;;;9173507;19;20585;-70
2023/08/09 13:38:30;;;;;;;3.53;1.60;;;24.10;64.00;;;;;;9176925;19;20018;-70
2023/08/09 13:41:37;;;;;;;6.20;1.50;;;24.10;63.70;;;;;;9178559;19;20018;-69
2023/08/09 13:44:45;;;;;;;4.65;1.75;;;24.10;63.80;;;;;;9174291;19;20044;-69
2023/08/09 13:47:52;;;;;;;3.80;1.83;;;24.20;63.80;;;;;;9172762;19;20015;-69
2023/08/09 13:50:58;;;;;;;3.65;1.73;;;24.20;63.80;;;;;;9172096;19;20014;-69
2023/08/09 13:54:08;;;;;;;5.90;2.05;;;24.10;63.70;;;;;;9171755;19;20014;-71
2023/08/09 13:57:13;;;;;;;4.25;2.17;;;24.10;63.90;;;;;;9167000;19;20674;-70
2023/08/09 14:00:23;;;;;;;3.50;2.08;;;24.00;64.00;;;;;;9175151;19;20010;-70
2023/08/09 14:03:35;;;;;;;5.90;2.45;;;24.00;64.00;;;;;;9178951;19;20014;-72
2023/08/09 14:06:43;;;;;;;5.15;2.58;;;23.90;64.20;;;;;;9176051;19;20015;-70
2023/08/09 14:09:49;;;;;;;3.70;1.80;;;23.90;64.40;;;;;;9175243;19;20557;-71
2023/08/09 14:12:58;;;;;;;4.15;2.30;;;23.90;64.40;;;;;;9177919;19;20755;-70
2023/08/09 14:16:06;;;;;;;5.65;2.40;;;23.90;64.40;;;;;;9177879;19;20038;-70
2023/08/09 14:19:15;;;;;;;3.10;1.80;;;23.90;64.30;;;;;;9177983;19;20018;-71
2023/08/09 14:22:20;;;;;;;6.88;3.10;;;24.00;64.30;;;;;;9176404;19;20480;-70
2023/08/09 14:25:28;;;;;;;2.35;1.50;;;24.00;64.30;;;;;;9182627;19;20022;-69
2023/08/09 14:28:33;;;;;;;5.88;3.47;;;24.10;64.40;;;;;;9176056;19;20029;-69
2023/08/09 14:31:44;;;;;;;5.57;2.88;;;24.20;64.40;;;;;;9176669;19;20014;-70
2023/08/09 14:34:49;;;;;;;6.32;2.65;;;24.30;64.30;;;;;;9177126;19;20016;-69
2023/08/09 14:37:57;;;;;;;6.78;3.22;;;24.30;64.30;;;;;;9176814;19;20019;-69
2023/08/09 14:41:02;;;;;;;6.60;2.72;;;24.40;64.30;;;;;;9178062;19;20022;-70
2023/08/09 14:44:09;;;;;;;5.07;2.83;;;24.50;64.20;;;;;;9177654;19;20019;-71
2023/08/09 14:47:18;;;;;;;4.80;2.28;;;24.50;64.00;;;;;;9177345;19;20006;-69
2023/08/09 14:50:25;;;;;;;4.72;2.00;;;24.50;63.80;;;;;;9174795;19;20626;-68
2023/08/09 14:53:31;;;;;;;3.75;1.92;;;24.60;63.80;;;;;;9175818;19;20018;-69
2023/08/09 14:56:39;;;;;;;2.20;1.27;;;24.60;63.80;;;;;;9171808;19;20010;-69
2023/08/09 14:59:47;;;;;;;2.85;1.27;;;24.60;63.60;;;;;;9171403;19;20702;-69
2023/08/09 15:02:57;;;;;;;1.85;1.00;;;24.60;63.60;;;;;;9173532;19;20006;-69
2023/08/09 15:06:03;;;;;;;3.50;1.33;;;24.60;63.30;;;;;;9172260;19;20014;-68
2023/08/09 15:09:12;;;;;;;2.58;1.30;;;24.50;63.40;;;;;;9171370;19;20014;-69
2023/08/09 15:12:18;;;;;;;5.13;0.88;;;24.50;63.50;;;;;;9167887;19;20010;-70
2023/08/09 15:15:25;;;;;;;4.32;1.33;;;24.40;63.40;;;;;;9166917;19;20022;-71
2023/08/09 15:18:33;;;;;;;5.60;1.30;;;24.40;63.40;;;;;;9170262;19;20018;-70
2023/08/09 15:21:41;;;;;;;14.98;1.30;;;24.30;63.20;;;;;;9170085;19;20025;-70
2023/08/09 15:24:46;;;;;;;4.85;1.13;;;24.30;63.20;;;;;;9169050;19;20019;-71
2023/08/09 15:27:55;;;;;;;3.22;1.00;;;24.20;63.10;;;;;;9167759;19;20018;-71
2023/08/09 15:31:01;;;;;;;8.10;1.23;;;24.20;63.10;;;;;;9165640;19;20129;-71
2023/08/09 15:34:11;;;;;;;7.47;1.38;;;24.20;63.10;;;;;;9168048;19;20015;-70
2023/08/09 15:37:17;;;;;;;2.85;1.20;;;24.20;63.00;;;;;;9169696;19;20026;-72
2023/08/09 15:40:24;;;;;;;9.50;1.70;;;24.20;63.00;;;;;;9167712;19;20018;-72
2023/08/09 15:43:30;;;;;;;3.53;1.38;;;24.20;62.90;;;;;;9170515;19;20495;-73
2023/08/09 15:46:37;;;;;;;3.50;1.20;;;24.20;62.80;;;;;;9167670;19;20026;-72
2023/08/09 15:49:46;;;;;;;5.72;1.48;;;24.10;62.70;;;;;;9167012;19;20762;-72
2023/08/09 15:52:54;;;;;;;6.20;1.30;;;24.10;62.70;;;;;;9168481;19;20026;-72
2023/08/09 15:55:59;;;;;;;6.32;1.38;;;24.10;62.70;;;;;;9170745;19;20018;-72
2023/08/09 15:59:06;;;;;;;9.20;1.35;;;24.00;62.60;;;;;;9168237;19;20751;-71
2023/08/09 16:02:12;;;;;;;5.07;1.50;;;24.00;62.60;;;;;;9171495;19;20029;-72
2023/08/09 16:05:25;;;;;;;4.88;1.25;;;23.90;62.60;;;;;;9168880;19;20025;-72
2023/08/09 16:08:31;;;;;;;3.47;1.13;;;23.80;62.60;;;;;;9173488;19;20014;-72
2023/08/09 16:11:39;;;;;;;8.82;1.55;;;23.70;62.50;;;;;;9166323;19;20021;-72